sensor_id;sensor_type;location;lat;lon;timestamp;pressure;altitude;pressure_sealevel;temperature;humidity
5691;BME280;2870;42.680;23.364;2023-04-03T00:01:25;94514.72;;;8.68;72.25
5691;BME280;2870;42.680;23.364;2023-04-03T00:03:52;94519.34;;;8.73;70.71
5691;BME280;2870;42.680;23.364;2023-04-03T00:06:20;94519.91;;;8.72;70.15
5691;BME280;2870;42.680;23.364;2023-04-03T00:08:47;94525.34;;;8.70;70.06
5691;BME280;2870;42.680;23.364;2023-04-03T00:11:14;94512.28;;;8.65;70.91
5691;BME280;2870;42.680;23.364;2023-04-03T00:13:41;94504.09;;;8.59;71.74
5691;BME280;2870;42.680;23.364;2023-04-03T00:16:09;94496.66;;;8.39;72.94
5691;BME280;2870;42.680;23.364;2023-04-03T00:18:37;94490.31;;;8.31;73.16
5691;BME280;2870;42.680;23.364;2023-04-03T00:21:05;94489.97;;;8.42;73.50
5691;BME280;2870;42.680;23.364;2023-04-03T00:23:33;94499.28;;;8.44;73.99
5691;BME280;2870;42.680;23.364;2023-04-03T00:26:00;94492.75;;;8.42;74.54
5691;BME280;2870;42.680;23.364;2023-04-03T00:28:27;94494.97;;;8.28;73.28
5691;BME280;2870;42.680;23.364;2023-04-03T00:30:54;94498.91;;;8.48;72.12
5691;BME280;2870;42.680;23.364;2023-04-03T00:33:21;94498.53;;;8.36;72.71
5691;BME280;2870;42.680;23.364;2023-04-03T00:35:50;94495.19;;;8.30;74.53
5691;BME280;2870;42.680;23.364;2023-04-03T00:38:17;94500.22;;;8.39;74.75
5691;BME280;2870;42.680;23.364;2023-04-03T00:40:48;94500.22;;;8.24;74.14
5691;BME280;2870;42.680;23.364;2023-04-03T00:43:16;94499.44;;;8.16;74.38
5691;BME280;2870;42.680;23.364;2023-04-03T00:45:45;94502.63;;;8.20;74.78
5691;BME280;2870;42.680;23.364;2023-04-03T00:48:15;94505.03;;;8.16;73.96
5691;BME280;2870;42.680;23.364;2023-04-03T00:50:44;94504.84;;;8.21;75.91
5691;BME280;2870;42.680;23.364;2023-04-03T00:53:13;94507.66;;;8.14;76.50
5691;BME280;2870;42.680;23.364;2023-04-03T00:55:41;94499.66;;;8.18;77.22
5691;BME280;2870;42.680;23.364;2023-04-03T00:58:11;94500.75;;;8.15;76.80
5691;BME280;2870;42.680;23.364;2023-04-03T01:00:40;94499.09;;;8.12;76.99
5691;BME280;2870;42.680;23.364;2023-04-03T01:03:09;94510.84;;;8.18;77.26
5691;BME280;2870;42.680;23.364;2023-04-03T01:05:36;94495.16;;;8.15;77.21
5691;BME280;2870;42.680;23.364;2023-04-03T01:08:03;94505.78;;;8.09;78.20
5691;BME280;2870;42.680;23.364;2023-04-03T01:10:30;94477.13;;;7.85;78.32
5691;BME280;2870;42.680;23.364;2023-04-03T01:12:57;94503.94;;;8.04;78.79
5691;BME280;2870;42.680;23.364;2023-04-03T01:15:28;94509.53;;;8.11;78.74
5691;BME280;2870;42.680;23.364;2023-04-03T01:17:58;94504.88;;;8.06;78.38
5691;BME280;2870;42.680;23.364;2023-04-03T01:23:40;94498.72;;;8.31;77.43
5691;BME280;2870;42.680;23.364;2023-04-03T01:26:10;94506.91;;;8.21;77.61
5691;BME280;2870;42.680;23.364;2023-04-03T01:28:38;94507.47;;;8.19;77.51
5691;BME280;2870;42.680;23.364;2023-04-03T01:31:12;94507.84;;;8.16;77.67
5691;BME280;2870;42.680;23.364;2023-04-03T01:33:43;94510.44;;;8.14;78.00
5691;BME280;2870;42.680;23.364;2023-04-03T01:36:13;94508.41;;;8.07;79.34
5691;BME280;2870;42.680;23.364;2023-04-03T01:38:40;94505.78;;;8.09;78.82
5691;BME280;2870;42.680;23.364;2023-04-03T01:41:07;94502.63;;;8.05;79.12
5691;BME280;2870;42.680;23.364;2023-04-03T01:43:34;94501.50;;;8.08;78.71
5691;BME280;2870;42.680;23.364;2023-04-03T01:46:01;94501.69;;;8.02;78.65
5691;BME280;2870;42.680;23.364;2023-04-03T01:48:28;94503.56;;;8.07;78.57
5691;BME280;2870;42.680;23.364;2023-04-03T01:50:56;94500.78;;;8.07;79.13
5691;BME280;2870;42.680;23.364;2023-04-03T01:53:23;94502.63;;;8.12;77.81
5691;BME280;2870;42.680;23.364;2023-04-03T01:55:49;94507.66;;;7.91;78.28
5691;BME280;2870;42.680;23.364;2023-04-03T01:58:16;94511.72;;;7.67;78.12
5691;BME280;2870;42.680;23.364;2023-04-03T02:03:34;94518.50;;;7.35;78.36
5691;BME280;2870;42.680;23.364;2023-04-03T02:06:02;94518.09;;;7.24;79.97
5691;BME280;2870;42.680;23.364;2023-04-03T02:08:29;94511.19;;;7.17;80.75
5691;BME280;2870;42.680;23.364;2023-04-03T02:10:56;94511.88;;;7.02;79.18
5691;BME280;2870;42.680;23.364;2023-04-03T02:13:23;94522.19;;;7.15;79.00
5691;BME280;2870;42.680;23.364;2023-04-03T02:15:50;94514.81;;;6.97;79.97
5691;BME280;2870;42.680;23.364;2023-04-03T02:18:17;94514.25;;;6.90;80.26
5691;BME280;2870;42.680;23.364;2023-04-03T02:20:44;94519.03;;;6.82;80.97
5691;BME280;2870;42.680;23.364;2023-04-03T02:23:12;94510.88;;;6.84;81.37
5691;BME280;2870;42.680;23.364;2023-04-03T02:25:39;94510.38;;;6.94;81.15
5691;BME280;2870;42.680;23.364;2023-04-03T02:28:06;94504.25;;;7.03;80.34
5691;BME280;2870;42.680;23.364;2023-04-03T02:30:32;94495.63;;;6.85;80.84
5691;BME280;2870;42.680;23.364;2023-04-03T02:32:59;94491.75;;;6.88;80.93
5691;BME280;2870;42.680;23.364;2023-04-03T02:35:26;94491.78;;;6.96;81.95
5691;BME280;2870;42.680;23.364;2023-04-03T02:37:53;94487.09;;;6.83;82.04
5691;BME280;2870;42.680;23.364;2023-04-03T02:40:22;94491.66;;;6.73;82.35
5691;BME280;2870;42.680;23.364;2023-04-03T02:42:49;94494.28;;;6.71;82.52
5691;BME280;2870;42.680;23.364;2023-04-03T02:45:16;94493.47;;;6.63;82.41
5691;BME280;2870;42.680;23.364;2023-04-03T02:47:42;94489.19;;;6.98;81.58
5691;BME280;2870;42.680;23.364;2023-04-03T02:50:09;94479.16;;;6.59;82.20
5691;BME280;2870;42.680;23.364;2023-04-03T02:52:37;94488.31;;;6.75;81.93
5691;BME280;2870;42.680;23.364;2023-04-03T02:55:04;94486.03;;;7.02;81.92
5691;BME280;2870;42.680;23.364;2023-04-03T02:57:33;94474.38;;;7.11;81.36
5691;BME280;2870;42.680;23.364;2023-04-03T03:00:00;94480.34;;;7.15;81.21
5691;BME280;2870;42.680;23.364;2023-04-03T03:02:27;94476.94;;;7.01;80.86
5691;BME280;2870;42.680;23.364;2023-04-03T03:04:54;94475.38;;;6.85;82.42
5691;BME280;2870;42.680;23.364;2023-04-03T03:07:21;94462.19;;;6.49;83.11
5691;BME280;2870;42.680;23.364;2023-04-03T03:09:47;94476.84;;;6.78;83.07
5691;BME280;2870;42.680;23.364;2023-04-03T03:12:14;94470.28;;;7.20;82.22
5691;BME280;2870;42.680;23.364;2023-04-03T03:14:43;94469.38;;;7.25;81.42
5691;BME280;2870;42.680;23.364;2023-04-03T03:17:09;94470.97;;;6.97;81.97
5691;BME280;2870;42.680;23.364;2023-04-03T03:19:36;94463.28;;;6.82;82.51
5691;BME280;2870;42.680;23.364;2023-04-03T03:22:03;94468.66;;;6.80;82.43
5691;BME280;2870;42.680;23.364;2023-04-03T03:24:30;94458.59;;;6.70;83.14
5691;BME280;2870;42.680;23.364;2023-04-03T03:26:57;94446.69;;;6.69;83.61
5691;BME280;2870;42.680;23.364;2023-04-03T03:29:24;94467.06;;;6.93;82.91
5691;BME280;2870;42.680;23.364;2023-04-03T03:31:52;94470.34;;;6.83;82.12
5691;BME280;2870;42.680;23.364;2023-04-03T03:34:19;94472.66;;;7.08;80.80
5691;BME280;2870;42.680;23.364;2023-04-03T03:36:46;94470.44;;;7.06;81.86
5691;BME280;2870;42.680;23.364;2023-04-03T03:39:13;94472.72;;;7.15;80.73
5691;BME280;2870;42.680;23.364;2023-04-03T03:41:39;94486.44;;;7.06;82.12
5691;BME280;2870;42.680;23.364;2023-04-03T03:44:06;94475.53;;;6.79;81.35
5691;BME280;2870;42.680;23.364;2023-04-03T03:46:33;94483.31;;;6.73;82.35
5691;BME280;2870;42.680;23.364;2023-04-03T03:49:01;94465.44;;;6.69;83.26
5691;BME280;2870;42.680;23.364;2023-04-03T03:51:28;94468.03;;;6.59;84.17
5691;BME280;2870;42.680;23.364;2023-04-03T03:53:55;94471.81;;;6.77;83.60
5691;BME280;2870;42.680;23.364;2023-04-03T03:56:21;94477.94;;;6.75;83.20
5691;BME280;2870;42.680;23.364;2023-04-03T03:58:48;94479.22;;;6.74;83.70
5691;BME280;2870;42.680;23.364;2023-04-03T04:01:16;94474.91;;;6.66;84.70
5691;BME280;2870;42.680;23.364;2023-04-03T04:03:43;94469.69;;;6.62;83.46
5691;BME280;2870;42.680;23.364;2023-04-03T04:06:11;94480.97;;;6.49;83.48
5691;BME280;2870;42.680;23.364;2023-04-03T04:08:38;94472.41;;;6.47;82.79
5691;BME280;2870;42.680;23.364;2023-04-03T04:11:05;94468.13;;;6.46;83.50
5691;BME280;2870;42.680;23.364;2023-04-03T04:13:32;94464.25;;;6.49;83.38
5691;BME280;2870;42.680;23.364;2023-04-03T04:15:59;94472.41;;;6.47;83.19
5691;BME280;2870;42.680;23.364;2023-04-03T04:18:26;94480.56;;;6.45;83.16
5691;BME280;2870;42.680;23.364;2023-04-03T04:20:53;94481.75;;;6.57;82.66
5691;BME280;2870;42.680;23.364;2023-04-03T04:23:21;94483.16;;;6.79;82.40
5691;BME280;2870;42.680;23.364;2023-04-03T04:25:48;94493.72;;;6.73;83.06
5691;BME280;2870;42.680;23.364;2023-04-03T04:28:16;94496.50;;;6.73;82.52
5691;BME280;2870;42.680;23.364;2023-04-03T04:30:43;94494.53;;;6.88;81.83
5691;BME280;2870;42.680;23.364;2023-04-03T04:33:11;94492.53;;;6.97;81.78
5691;BME280;2870;42.680;23.364;2023-04-03T04:35:41;94493.06;;;6.95;81.89
5691;BME280;2870;42.680;23.364;2023-04-03T04:38:08;94494.38;;;6.94;82.36
5691;BME280;2870;42.680;23.364;2023-04-03T04:40:36;94502.19;;;6.96;82.26
5691;BME280;2870;42.680;23.364;2023-04-03T04:43:03;94513.06;;;6.78;82.01
5691;BME280;2870;42.680;23.364;2023-04-03T04:45:30;94500.25;;;6.75;82.00
5691;BME280;2870;42.680;23.364;2023-04-03T04:47:57;94491.50;;;6.71;81.65
5691;BME280;2870;42.680;23.364;2023-04-03T04:50:23;94505.72;;;6.96;81.67
5691;BME280;2870;42.680;23.364;2023-04-03T04:52:50;94509.31;;;7.04;81.41
5691;BME280;2870;42.680;23.364;2023-04-03T04:55:17;94507.09;;;7.10;82.93
5691;BME280;2870;42.680;23.364;2023-04-03T04:57:46;94506.53;;;7.12;81.53
5691;BME280;2870;42.680;23.364;2023-04-03T05:00:14;94510.28;;;7.22;82.73
5691;BME280;2870;42.680;23.364;2023-04-03T05:02:41;94516.97;;;7.19;81.89
5691;BME280;2870;42.680;23.364;2023-04-03T05:05:08;94523.91;;;6.89;81.21
5691;BME280;2870;42.680;23.364;2023-04-03T05:07:35;94524.47;;;6.88;81.69
5691;BME280;2870;42.680;23.364;2023-04-03T05:10:02;94539.53;;;6.93;82.00
5691;BME280;2870;42.680;23.364;2023-04-03T05:12:30;94544.75;;;6.96;81.06
5691;BME280;2870;42.680;23.364;2023-04-03T05:14:58;94541.81;;;7.02;80.58
5691;BME280;2870;42.680;23.364;2023-04-03T05:17:25;94551.00;;;7.17;78.06
5691;BME280;2870;42.680;23.364;2023-04-03T05:19:51;94540.75;;;7.20;77.18
5691;BME280;2870;42.680;23.364;2023-04-03T05:22:18;94552.53;;;7.26;77.40
5691;BME280;2870;42.680;23.364;2023-04-03T05:24:45;94550.28;;;7.25;78.21
5691;BME280;2870;42.680;23.364;2023-04-03T05:27:12;94548.34;;;7.56;78.16
5691;BME280;2870;42.680;23.364;2023-04-03T05:29:39;94540.75;;;7.20;78.75
5691;BME280;2870;42.680;23.364;2023-04-03T05:32:10;94537.28;;;7.27;78.71
5691;BME280;2870;42.680;23.364;2023-04-03T05:34:37;94533.59;;;7.48;79.04
5691;BME280;2870;42.680;23.364;2023-04-03T05:37:04;94537.38;;;7.58;78.82
5691;BME280;2870;42.680;23.364;2023-04-03T05:39:30;94536.09;;;7.66;79.48
5691;BME280;2870;42.680;23.364;2023-04-03T05:41:57;94534.22;;;7.77;78.60
5691;BME280;2870;42.680;23.364;2023-04-03T05:44:24;94537.78;;;7.85;79.38
5691;BME280;2870;42.680;23.364;2023-04-03T05:46:51;94537.41;;;7.88;78.72
5691;BME280;2870;42.680;23.364;2023-04-03T05:49:19;94537.28;;;8.17;78.53
5691;BME280;2870;42.680;23.364;2023-04-03T05:51:46;94530.94;;;8.32;77.58
5691;BME280;2870;42.680;23.364;2023-04-03T05:54:16;94530.56;;;8.35;77.04
5691;BME280;2870;42.680;23.364;2023-04-03T05:56:44;94535.78;;;8.62;78.02
5691;BME280;2870;42.680;23.364;2023-04-03T05:59:11;94533.69;;;8.77;76.28
5691;BME280;2870;42.680;23.364;2023-04-03T06:01:37;94525.75;;;8.51;75.04
5691;BME280;2870;42.680;23.364;2023-04-03T06:04:04;94531.69;;;8.17;76.34
5691;BME280;2870;42.680;23.364;2023-04-03T06:06:49;94526.28;;;8.04;76.51
5691;BME280;2870;42.680;23.364;2023-04-03T06:09:17;94518.66;;;8.19;76.30
5691;BME280;2870;42.680;23.364;2023-04-03T06:11:44;94512.84;;;7.79;78.22
5691;BME280;2870;42.680;23.364;2023-04-03T06:14:11;94510.63;;;8.16;77.23
5691;BME280;2870;42.680;23.364;2023-04-03T06:16:39;94511.19;;;8.22;77.43
5691;BME280;2870;42.680;23.364;2023-04-03T06:19:06;94514.00;;;8.37;77.02
5691;BME280;2870;42.680;23.364;2023-04-03T06:21:33;94508.19;;;8.66;76.19
5691;BME280;2870;42.680;23.364;2023-04-03T06:24:02;94505.88;;;9.02;74.74
5691;BME280;2870;42.680;23.364;2023-04-03T06:26:29;94512.34;;;9.13;73.32
5691;BME280;2870;42.680;23.364;2023-04-03T06:28:56;94516.81;;;9.56;71.76
5691;BME280;2870;42.680;23.364;2023-04-03T06:31:23;94531.34;;;9.62;71.57
5691;BME280;2870;42.680;23.364;2023-04-03T06:33:49;94535.09;;;9.57;71.74
5691;BME280;2870;42.680;23.364;2023-04-03T06:36:18;94537.53;;;9.61;70.87
5691;BME280;2870;42.680;23.364;2023-04-03T06:38:47;94541.31;;;9.48;71.87
5691;BME280;2870;42.680;23.364;2023-04-03T06:41:15;94541.38;;;9.73;71.04
5691;BME280;2870;42.680;23.364;2023-04-03T06:43:43;94537.72;;;9.15;71.08
5691;BME280;2870;42.680;23.364;2023-04-03T06:46:13;94535.50;;;9.06;72.87
5691;BME280;2870;42.680;23.364;2023-04-03T06:48:40;94529.41;;;8.76;73.58
5691;BME280;2870;42.680;23.364;2023-04-03T06:51:10;94532.19;;;8.84;76.15
5691;BME280;2870;42.680;23.364;2023-04-03T06:53:37;94528.91;;;9.18;73.97
5691;BME280;2870;42.680;23.364;2023-04-03T06:56:05;94534.38;;;9.01;73.00
5691;BME280;2870;42.680;23.364;2023-04-03T06:58:33;94543.25;;;9.30;71.76
5691;BME280;2870;42.680;23.364;2023-04-03T07:01:00;94539.81;;;8.99;74.09
5691;BME280;2870;42.680;23.364;2023-04-03T07:03:26;94539.28;;;8.85;74.83
5691;BME280;2870;42.680;23.364;2023-04-03T07:05:53;94529.59;;;9.34;73.46
5691;BME280;2870;42.680;23.364;2023-04-03T07:08:20;94530.81;;;9.16;73.27
5691;BME280;2870;42.680;23.364;2023-04-03T07:10:48;94531.06;;;9.75;72.73
5691;BME280;2870;42.680;23.364;2023-04-03T07:13:15;94531.63;;;10.06;70.99
5691;BME280;2870;42.680;23.364;2023-04-03T07:15:43;94526.06;;;10.31;69.70
5691;BME280;2870;42.680;23.364;2023-04-03T07:18:10;94516.56;;;10.27;69.46
5691;BME280;2870;42.680;23.364;2023-04-03T07:20:38;94512.47;;;10.20;69.79
5691;BME280;2870;42.680;23.364;2023-04-03T07:23:05;94513.34;;;10.30;70.71
5691;BME280;2870;42.680;23.364;2023-04-03T07:25:32;94509.72;;;10.63;70.08
5691;BME280;2870;42.680;23.364;2023-04-03T07:27:59;94507.69;;;10.98;68.76
5691;BME280;2870;42.680;23.364;2023-04-03T07:30:26;94508.75;;;11.02;68.34
5691;BME280;2870;42.680;23.364;2023-04-03T07:32:54;94525.34;;;11.08;67.65
5691;BME280;2870;42.680;23.364;2023-04-03T07:35:20;94510.50;;;11.59;66.87
5691;BME280;2870;42.680;23.364;2023-04-03T07:37:47;94514.13;;;11.70;63.79
5691;BME280;2870;42.680;23.364;2023-04-03T07:40:14;94524.63;;;11.96;63.44
5691;BME280;2870;42.680;23.364;2023-04-03T07:42:41;94510.25;;;11.65;63.98
5691;BME280;2870;42.680;23.364;2023-04-03T07:45:08;94512.09;;;11.80;62.49
5691;BME280;2870;42.680;23.364;2023-04-03T07:47:35;94514.50;;;11.39;64.19
5691;BME280;2870;42.680;23.364;2023-04-03T07:50:04;94500.38;;;11.47;63.99
5691;BME280;2870;42.680;23.364;2023-04-03T07:52:32;94504.22;;;11.51;64.64
5691;BME280;2870;42.680;23.364;2023-04-03T07:54:58;94503.63;;;11.08;66.13
5691;BME280;2870;42.680;23.364;2023-04-03T07:57:25;94500.72;;;11.33;66.12
5691;BME280;2870;42.680;23.364;2023-04-03T07:59:52;94495.44;;;11.37;65.54
5691;BME280;2870;42.680;23.364;2023-04-03T08:02:19;94498.09;;;11.62;64.28
5691;BME280;2870;42.680;23.364;2023-04-03T08:04:46;94492.06;;;11.66;64.63
5691;BME280;2870;42.680;23.364;2023-04-03T08:07:14;94488.94;;;11.00;65.81
5691;BME280;2870;42.680;23.364;2023-04-03T08:09:41;94496.22;;;10.86;67.03
5691;BME280;2870;42.680;23.364;2023-04-03T08:12:08;94491.81;;;11.27;67.27
5691;BME280;2870;42.680;23.364;2023-04-03T08:14:37;94480.75;;;11.29;66.38
5691;BME280;2870;42.680;23.364;2023-04-03T08:17:03;94481.75;;;11.51;65.98
5691;BME280;2870;42.680;23.364;2023-04-03T08:19:31;94480.59;;;11.54;66.28
5691;BME280;2870;42.680;23.364;2023-04-03T08:21:58;94479.53;;;11.50;66.73
5691;BME280;2870;42.680;23.364;2023-04-03T08:24:27;94487.88;;;12.11;65.09
5691;BME280;2870;42.680;23.364;2023-04-03T08:26:54;94476.13;;;11.68;64.64
5691;BME280;2870;42.680;23.364;2023-04-03T08:29:21;94476.34;;;11.36;65.94
5691;BME280;2870;42.680;23.364;2023-04-03T08:31:48;94480.06;;;11.38;66.07
5691;BME280;2870;42.680;23.364;2023-04-03T08:34:15;94484.09;;;11.45;64.66
5691;BME280;2870;42.680;23.364;2023-04-03T08:36:42;94481.19;;;11.08;66.06
5691;BME280;2870;42.680;23.364;2023-04-03T08:39:10;94472.91;;;11.10;67.58
5691;BME280;2870;42.680;23.364;2023-04-03T08:41:39;94449.03;;;11.63;65.74
5691;BME280;2870;42.680;23.364;2023-04-03T08:44:15;94461.22;;;12.12;64.69
5691;BME280;2870;42.680;23.364;2023-04-03T08:46:54;94466.06;;;12.02;62.40
5691;BME280;2870;42.680;23.364;2023-04-03T08:49:25;94457.25;;;12.15;63.73
5691;BME280;2870;42.680;23.364;2023-04-03T08:51:54;94459.22;;;12.32;64.45
5691;BME280;2870;42.680;23.364;2023-04-03T08:54:26;94459.41;;;12.44;62.99
5691;BME280;2870;42.680;23.364;2023-04-03T08:56:56;94459.00;;;12.86;59.93
5691;BME280;2870;42.680;23.364;2023-04-03T08:59:28;94452.06;;;12.97;60.67
5691;BME280;2870;42.680;23.364;2023-04-03T09:01:57;94449.06;;;12.76;60.45
5691;BME280;2870;42.680;23.364;2023-04-03T09:04:27;94452.59;;;12.47;61.52
5691;BME280;2870;42.680;23.364;2023-04-03T09:06:58;94444.25;;;12.30;62.57
5691;BME280;2870;42.680;23.364;2023-04-03T09:09:32;94445.00;;;12.30;63.10
5691;BME280;2870;42.680;23.364;2023-04-03T09:12:06;94433.66;;;12.57;61.70
5691;BME280;2870;42.680;23.364;2023-04-03T09:14:45;94433.25;;;12.99;62.07
5691;BME280;2870;42.680;23.364;2023-04-03T09:17:16;94426.28;;;12.91;59.73
5691;BME280;2870;42.680;23.364;2023-04-03T09:19:52;94424.00;;;12.31;61.88
5691;BME280;2870;42.680;23.364;2023-04-03T09:22:23;94402.88;;;12.59;60.27
5691;BME280;2870;42.680;23.364;2023-04-03T09:24:57;94416.03;;;12.37;62.26
5691;BME280;2870;42.680;23.364;2023-04-03T09:27:27;94412.66;;;12.87;62.72
5691;BME280;2870;42.680;23.364;2023-04-03T09:29:56;94419.75;;;13.17;59.30
5691;BME280;2870;42.680;23.364;2023-04-03T09:32:27;94418.69;;;13.51;58.74
5691;BME280;2870;42.680;23.364;2023-04-03T09:34:56;94420.56;;;13.68;58.86
5691;BME280;2870;42.680;23.364;2023-04-03T09:37:35;94414.81;;;13.97;57.87
5691;BME280;2870;42.680;23.364;2023-04-03T09:40:03;94412.97;;;13.71;57.76
5691;BME280;2870;42.680;23.364;2023-04-03T09:42:32;94410.22;;;13.92;57.17
5691;BME280;2870;42.680;23.364;2023-04-03T09:45:00;94417.88;;;13.70;57.05
5691;BME280;2870;42.680;23.364;2023-04-03T09:47:28;94411.25;;;13.56;60.10
5691;BME280;2870;42.680;23.364;2023-04-03T09:50:17;94402.19;;;13.67;58.50
5691;BME280;2870;42.680;23.364;2023-04-03T09:52:47;94399.97;;;13.97;57.68
5691;BME280;2870;42.680;23.364;2023-04-03T09:55:16;94407.44;;;13.83;57.36
5691;BME280;2870;42.680;23.364;2023-04-03T09:57:45;94381.16;;;13.49;57.24
5691;BME280;2870;42.680;23.364;2023-04-03T10:00:20;94398.91;;;13.61;58.40
5691;BME280;2870;42.680;23.364;2023-04-03T10:02:50;94395.50;;;13.63;57.81
5691;BME280;2870;42.680;23.364;2023-04-03T10:05:28;94394.19;;;13.54;58.90
5691;BME280;2870;42.680;23.364;2023-04-03T10:08:15;94395.09;;;13.47;58.79
5691;BME280;2870;42.680;23.364;2023-04-03T10:10:47;94367.78;;;12.99;58.77
5691;BME280;2870;42.680;23.364;2023-04-03T10:13:17;94387.31;;;12.97;60.06
5691;BME280;2870;42.680;23.364;2023-04-03T10:15:49;94386.84;;;13.20;59.37
5691;BME280;2870;42.680;23.364;2023-04-03T10:18:28;94386.09;;;13.19;61.46
5691;BME280;2870;42.680;23.364;2023-04-03T10:20:59;94368.63;;;13.31;60.44
5691;BME280;2870;42.680;23.364;2023-04-03T10:23:33;94385.63;;;13.52;59.62
5691;BME280;2870;42.680;23.364;2023-04-03T10:26:13;94375.56;;;13.80;58.96
5691;BME280;2870;42.680;23.364;2023-04-03T10:28:49;94374.22;;;13.81;59.71
5691;BME280;2870;42.680;23.364;2023-04-03T10:31:25;94370.72;;;13.61;59.35
5691;BME280;2870;42.680;23.364;2023-04-03T10:34:00;94371.38;;;13.50;59.01
5691;BME280;2870;42.680;23.364;2023-04-03T10:36:37;94361.50;;;13.70;58.59
5691;BME280;2870;42.680;23.364;2023-04-03T10:39:20;94357.47;;;13.33;59.54
5691;BME280;2870;42.680;23.364;2023-04-03T10:41:59;94359.22;;;13.47;60.09
5691;BME280;2870;42.680;23.364;2023-04-03T10:44:36;94349.94;;;13.35;60.01
5691;BME280;2870;42.680;23.364;2023-04-03T10:47:11;94343.84;;;13.79;58.72
5691;BME280;2870;42.680;23.364;2023-04-03T10:49:48;94343.75;;;13.89;59.23
5691;BME280;2870;42.680;23.364;2023-04-03T10:52:22;94339.31;;;13.55;60.16
5691;BME280;2870;42.680;23.364;2023-04-03T10:54:59;94347.88;;;13.67;59.13
5691;BME280;2870;42.680;23.364;2023-04-03T10:57:29;94347.03;;;13.55;59.21
5691;BME280;2870;42.680;23.364;2023-04-03T11:00:02;94347.97;;;13.38;59.61
5691;BME280;2870;42.680;23.364;2023-04-03T11:02:48;94343.44;;;13.23;59.87
5691;BME280;2870;42.680;23.364;2023-04-03T11:05:21;94351.13;;;13.13;60.40
5691;BME280;2870;42.680;23.364;2023-04-03T11:07:53;94343.91;;;12.81;60.88
5691;BME280;2870;42.680;23.364;2023-04-03T11:10:27;94352.97;;;12.60;62.45
5691;BME280;2870;42.680;23.364;2023-04-03T11:13:01;94353.88;;;12.72;64.72
5691;BME280;2870;42.680;23.364;2023-04-03T11:15:32;94370.59;;;12.60;65.92
5691;BME280;2870;42.680;23.364;2023-04-03T11:18:02;94366.88;;;12.38;66.60
5691;BME280;2870;42.680;23.364;2023-04-03T11:20:32;94363.75;;;12.25;69.46
5691;BME280;2870;42.680;23.364;2023-04-03T11:23:03;94355.47;;;12.27;69.94
5691;BME280;2870;42.680;23.364;2023-04-03T11:25:32;94352.47;;;12.05;72.09
5691;BME280;2870;42.680;23.364;2023-04-03T11:28:02;94355.16;;;12.03;75.04
5691;BME280;2870;42.680;23.364;2023-04-03T11:30:34;94354.88;;;12.09;76.29
5691;BME280;2870;42.680;23.364;2023-04-03T11:33:28;94340.41;;;11.76;77.03
5691;BME280;2870;42.680;23.364;2023-04-03T11:36:02;94344.72;;;11.50;78.96
5691;BME280;2870;42.680;23.364;2023-04-03T11:38:35;94345.00;;;11.44;80.62
5691;BME280;2870;42.680;23.364;2023-04-03T11:41:06;94339.38;;;11.44;81.53
5691;BME280;2870;42.680;23.364;2023-04-03T11:43:40;94331.16;;;11.19;83.24
5691;BME280;2870;42.680;23.364;2023-04-03T11:46:08;94341.81;;;11.21;83.96
5691;BME280;2870;42.680;23.364;2023-04-03T11:48:46;94346.88;;;11.32;84.55
5691;BME280;2870;42.680;23.364;2023-04-03T11:51:41;94349.28;;;11.45;85.09
5691;BME280;2870;42.680;23.364;2023-04-03T12:00:48;94356.94;;;11.08;89.76
5691;BME280;2870;42.680;23.364;2023-04-03T12:07:10;94358.94;;;10.98;92.93
5691;BME280;2870;42.680;23.364;2023-04-03T12:12:55;94361.47;;;10.76;95.61
5691;BME280;2870;42.680;23.364;2023-04-03T12:15:51;94352.16;;;10.74;95.36
5691;BME280;2870;42.680;23.364;2023-04-03T12:18:55;94357.06;;;10.56;97.89
5691;BME280;2870;42.680;23.364;2023-04-03T12:24:28;94350.03;;;10.47;100.00
5691;BME280;2870;42.680;23.364;2023-04-03T12:27:14;94342.72;;;10.34;99.17
5691;BME280;2870;42.680;23.364;2023-04-03T12:29:47;94339.25;;;10.44;100.00
5691;BME280;2870;42.680;23.364;2023-04-03T12:32:26;94339.25;;;10.44;100.00
5691;BME280;2870;42.680;23.364;2023-04-03T12:35:10;94341.22;;;10.51;100.00
5691;BME280;2870;42.680;23.364;2023-04-03T12:38:10;94328.53;;;10.50;100.00
5691;BME280;2870;42.680;23.364;2023-04-03T12:40:48;94322.94;;;10.32;100.00
5691;BME280;2870;42.680;23.364;2023-04-03T12:43:41;94317.56;;;10.27;100.00
5691;BME280;2870;42.680;23.364;2023-04-03T12:46:14;94315.16;;;10.06;100.00
5691;BME280;2870;42.680;23.364;2023-04-03T12:48:48;94312.94;;;10.22;100.00
5691;BME280;2870;42.680;23.364;2023-04-03T12:51:18;94304.78;;;10.33;100.00
5691;BME280;2870;42.680;23.364;2023-04-03T12:53:46;94303.19;;;10.23;100.00
5691;BME280;2870;42.680;23.364;2023-04-03T12:56:24;94296.91;;;10.15;100.00
5691;BME280;2870;42.680;23.364;2023-04-03T12:58:52;94307.13;;;10.20;100.00
5691;BME280;2870;42.680;23.364;2023-04-03T13:01:21;94298.97;;;9.97;100.00
5691;BME280;2870;42.680;23.364;2023-04-03T13:03:52;94302.38;;;9.95;100.00
5691;BME280;2870;42.680;23.364;2023-04-03T13:06:22;94311.75;;;10.07;100.00
5691;BME280;2870;42.680;23.364;2023-04-03T13:08:52;94311.00;;;9.90;100.00
5691;BME280;2870;42.680;23.364;2023-04-03T13:11:21;94313.91;;;9.99;100.00
5691;BME280;2870;42.680;23.364;2023-04-03T13:13:58;94306.81;;;9.98;100.00
5691;BME280;2870;42.680;23.364;2023-04-03T13:16:26;94306.66;;;9.96;100.00
5691;BME280;2870;42.680;23.364;2023-04-03T13:18:54;94300.88;;;9.94;100.00
5691;BME280;2870;42.680;23.364;2023-04-03T13:21:24;94307.06;;;9.93;100.00
5691;BME280;2870;42.680;23.364;2023-04-03T13:23:55;94306.13;;;9.73;100.00
5691;BME280;2870;42.680;23.364;2023-04-03T13:26:27;94306.75;;;9.64;100.00
5691;BME280;2870;42.680;23.364;2023-04-03T13:28:57;94307.09;;;9.68;100.00
5691;BME280;2870;42.680;23.364;2023-04-03T13:31:27;94293.13;;;9.85;100.00
5691;BME280;2870;42.680;23.364;2023-04-03T13:33:59;94301.75;;;9.62;100.00
5691;BME280;2870;42.680;23.364;2023-04-03T13:36:31;94272.53;;;9.73;100.00
5691;BME280;2870;42.680;23.364;2023-04-03T13:39:01;94297.34;;;9.51;100.00
5691;BME280;2870;42.680;23.364;2023-04-03T13:41:32;94286.69;;;9.75;100.00
5691;BME280;2870;42.680;23.364;2023-04-03T13:44:15;94280.34;;;9.32;100.00
5691;BME280;2870;42.680;23.364;2023-04-03T13:46:43;94296.03;;;9.52;100.00
5691;BME280;2870;42.680;23.364;2023-04-03T13:49:20;94277.19;;;9.53;100.00
5691;BME280;2870;42.680;23.364;2023-04-03T13:51:48;94281.28;;;9.52;100.00
5691;BME280;2870;42.680;23.364;2023-04-03T13:54:20;94276.25;;;9.33;100.00